createdAt,value
2019-03-25T00:00:51.990Z,100251.61
2019-03-25T00:03:26.128Z,100258.56
2019-03-25T00:05:59.751Z,100255.27
2019-03-25T00:08:32.587Z,100251.12
2019-03-25T00:11:06.440Z,100240.55
2019-03-25T00:13:40.780Z,100241.45
2019-03-25T00:16:14.766Z,100228.59
2019-03-25T00:18:48.765Z,100225.30
2019-03-25T00:21:23.076Z,100216.02
2019-03-25T00:23:57.534Z,100216.67
2019-03-25T00:26:31.278Z,100214.85
2019-03-25T00:29:05.548Z,100201.75
2019-03-25T00:31:39.346Z,100191.92
2019-03-25T00:34:12.853Z,100186.96
2019-03-25T00:36:46.857Z,100187.38
2019-03-25T00:39:22.795Z,100175.71
2019-03-25T00:41:56.689Z,100167.02
2019-03-25T00:44:30.389Z,100167.98
2019-03-25T00:47:04.223Z,100162.67
2019-03-25T00:49:37.756Z,100160.36
2019-03-25T00:52:11.381Z,100146.73
2019-03-25T00:54:50.042Z,100144.69
2019-03-25T00:57:21.090Z,100135.33
2019-03-25T00:59:55.472Z,100131.86
2019-03-25T01:02:28.605Z,100133.28
2019-03-25T01:05:02.617Z,100127.34
2019-03-25T01:07:37.339Z,100115.55
2019-03-25T01:10:11.066Z,100105.48
2019-03-25T01:12:44.648Z,100103.38
2019-03-25T01:15:18.629Z,100090.30
2019-03-25T01:17:54.072Z,100089.17
2019-03-25T01:20:27.846Z,100088.09
2019-03-25T01:23:01.809Z,100083.40
2019-03-25T01:25:35.338Z,100067.09
2019-03-25T01:28:09.132Z,100072.80
2019-03-25T01:30:42.383Z,100061.39
2019-03-25T01:33:16.268Z,100050.72
2019-03-25T01:35:50.057Z,100053.14
2019-03-25T01:38:23.952Z,100042.30
2019-03-25T01:40:58.156Z,100039.28
2019-03-25T01:43:32.252Z,100031.53
2019-03-25T01:46:05.398Z,100032.88
2019-03-25T01:48:39.581Z,100013.30
2019-03-25T01:51:13.905Z,100021.93
2019-03-25T01:53:47.178Z,100009.41
2019-03-25T01:56:21.228Z,99997.98
2019-03-25T01:58:54.885Z,99994.41
2019-03-25T02:01:28.635Z,99984.52
2019-03-25T02:04:02.575Z,99984.70
2019-03-25T02:06:37.055Z,99976.36
2019-03-25T02:09:11.086Z,99970.84
2019-03-25T02:11:45.349Z,99965.05
2019-03-25T02:14:19.406Z,99959.98
2019-03-25T02:16:54.631Z,99960.75
2019-03-25T02:19:28.251Z,99955.91
2019-03-25T02:22:01.853Z,99952.12
2019-03-25T02:24:35.868Z,99955.83
2019-03-25T02:27:09.348Z,99942.69
2019-03-25T02:29:43.578Z,99928.17
2019-03-25T02:32:17.374Z,99934.42
2019-03-25T02:34:50.985Z,99926.20
2019-03-25T02:37:25.195Z,99925.13
2019-03-25T02:39:59.310Z,99910.84
2019-03-25T02:42:33.358Z,99905.20
2019-03-25T02:45:07.861Z,99899.95
2019-03-25T02:47:41.761Z,99900.67
2019-03-25T02:50:15.839Z,99898.47
2019-03-25T02:52:49.102Z,99906.55
2019-03-25T02:55:23.261Z,99890.39
2019-03-25T02:57:56.923Z,99880.36
2019-03-25T03:00:34.686Z,99883.52
2019-03-25T03:03:08.710Z,99876.38
2019-03-25T03:05:42.373Z,99865.92
2019-03-25T03:08:15.471Z,99859.00
2019-03-25T03:10:49.382Z,99868.29
2019-03-25T03:13:22.186Z,99869.91
2019-03-25T03:15:56.297Z,99890.36
2019-03-25T03:18:30.004Z,99892.62
2019-03-25T03:21:03.640Z,99900.83
2019-03-25T03:23:37.312Z,99903.44
2019-03-25T03:26:10.793Z,99916.18
2019-03-25T23:54:40.018Z,101030.80
2019-03-25T23:57:13.595Z,101041.23
2019-03-25T23:59:48.043Z,101029.95
